sensor_id;sensor_type;location;lat;lon;timestamp;P1;durP1;ratioP1;P2;durP2;ratioP2
11771;SDS011;12556;55.748;13.194;2023-06-26T00:01:08;6.53;;;5.33;;
11771;SDS011;12556;55.748;13.194;2023-06-26T00:03:36;6.07;;;4.90;;
11771;SDS011;12556;55.748;13.194;2023-06-26T00:06:03;6.40;;;5.20;;
11771;SDS011;12556;55.748;13.194;2023-06-26T00:08:30;6.53;;;5.57;;
11771;SDS011;12556;55.748;13.194;2023-06-26T00:10:57;5.90;;;5.30;;
11771;SDS011;12556;55.748;13.194;2023-06-26T00:13:25;6.20;;;5.60;;
11771;SDS011;12556;55.748;13.194;2023-06-26T00:15:52;7.53;;;6.00;;
11771;SDS011;12556;55.748;13.194;2023-06-26T00:18:19;7.00;;;6.30;;
11771;SDS011;12556;55.748;13.194;2023-06-26T00:20:46;7.33;;;6.60;;
11771;SDS011;12556;55.748;13.194;2023-06-26T00:23:13;8.33;;;7.07;;
11771;SDS011;12556;55.748;13.194;2023-06-26T00:25:42;7.40;;;6.70;;
11771;SDS011;12556;55.748;13.194;2023-06-26T00:28:09;8.00;;;7.30;;
11771;SDS011;12556;55.748;13.194;2023-06-26T00:30:38;8.10;;;7.27;;
11771;SDS011;12556;55.748;13.194;2023-06-26T00:33:05;8.50;;;7.70;;
11771;SDS011;12556;55.748;13.194;2023-06-26T00:35:31;9.13;;;8.20;;
11771;SDS011;12556;55.748;13.194;2023-06-26T00:38:00;7.93;;;7.13;;
11771;SDS011;12556;55.748;13.194;2023-06-26T00:40:27;8.40;;;7.37;;
11771;SDS011;12556;55.748;13.194;2023-06-26T00:42:53;10.43;;;7.57;;
11771;SDS011;12556;55.748;13.194;2023-06-26T00:45:20;8.37;;;7.47;;
11771;SDS011;12556;55.748;13.194;2023-06-26T00:47:48;7.87;;;7.10;;
11771;SDS011;12556;55.748;13.194;2023-06-26T00:50:15;8.10;;;7.30;;
11771;SDS011;12556;55.748;13.194;2023-06-26T00:52:42;8.90;;;7.77;;
11771;SDS011;12556;55.748;13.194;2023-06-26T00:55:09;8.97;;;7.87;;
11771;SDS011;12556;55.748;13.194;2023-06-26T00:57:36;9.33;;;7.30;;
11771;SDS011;12556;55.748;13.194;2023-06-26T01:00:04;8.43;;;7.63;;
11771;SDS011;12556;55.748;13.194;2023-06-26T01:02:32;9.27;;;7.33;;
11771;SDS011;12556;55.748;13.194;2023-06-26T01:05:00;8.47;;;7.10;;
11771;SDS011;12556;55.748;13.194;2023-06-26T01:07:31;8.17;;;7.37;;
11771;SDS011;12556;55.748;13.194;2023-06-26T01:10:01;7.50;;;6.40;;
11771;SDS011;12556;55.748;13.194;2023-06-26T01:12:29;8.87;;;7.97;;
11771;SDS011;12556;55.748;13.194;2023-06-26T01:14:57;8.77;;;7.90;;
11771;SDS011;12556;55.748;13.194;2023-06-26T01:17:25;9.57;;;8.57;;
11771;SDS011;12556;55.748;13.194;2023-06-26T01:19:56;9.83;;;8.93;;
11771;SDS011;12556;55.748;13.194;2023-06-26T01:22:27;9.70;;;8.30;;
11771;SDS011;12556;55.748;13.194;2023-06-26T01:25:12;11.07;;;9.00;;
11771;SDS011;12556;55.748;13.194;2023-06-26T01:27:45;9.23;;;8.00;;
11771;SDS011;12556;55.748;13.194;2023-06-26T01:30:14;10.07;;;9.07;;
11771;SDS011;12556;55.748;13.194;2023-06-26T01:32:43;8.90;;;8.00;;
11771;SDS011;12556;55.748;13.194;2023-06-26T01:35:11;10.87;;;9.47;;
11771;SDS011;12556;55.748;13.194;2023-06-26T01:37:38;11.00;;;8.93;;
11771;SDS011;12556;55.748;13.194;2023-06-26T01:40:05;10.03;;;9.03;;
11771;SDS011;12556;55.748;13.194;2023-06-26T01:42:33;10.87;;;9.83;;
11771;SDS011;12556;55.748;13.194;2023-06-26T01:45:03;10.43;;;8.97;;
11771;SDS011;12556;55.748;13.194;2023-06-26T01:47:34;10.07;;;8.73;;
11771;SDS011;12556;55.748;13.194;2023-06-26T01:50:06;10.90;;;8.67;;
11771;SDS011;12556;55.748;13.194;2023-06-26T01:52:38;12.63;;;9.00;;
11771;SDS011;12556;55.748;13.194;2023-06-26T01:55:10;10.50;;;9.40;;
11771;SDS011;12556;55.748;13.194;2023-06-26T01:57:42;10.23;;;9.17;;
11771;SDS011;12556;55.748;13.194;2023-06-26T02:00:13;10.57;;;9.47;;
11771;SDS011;12556;55.748;13.194;2023-06-26T02:02:43;10.27;;;8.63;;
11771;SDS011;12556;55.748;13.194;2023-06-26T02:05:11;11.07;;;9.50;;
11771;SDS011;12556;55.748;13.194;2023-06-26T02:07:38;9.40;;;8.57;;
11771;SDS011;12556;55.748;13.194;2023-06-26T02:10:06;11.57;;;9.17;;
11771;SDS011;12556;55.748;13.194;2023-06-26T02:12:33;12.10;;;9.53;;
11771;SDS011;12556;55.748;13.194;2023-06-26T02:15:01;11.20;;;9.30;;
11771;SDS011;12556;55.748;13.194;2023-06-26T02:17:30;9.20;;;8.33;;
11771;SDS011;12556;55.748;13.194;2023-06-26T02:19:57;10.27;;;9.17;;
11771;SDS011;12556;55.748;13.194;2023-06-26T02:22:24;8.93;;;8.13;;
11771;SDS011;12556;55.748;13.194;2023-06-26T02:24:53;10.00;;;8.90;;
11771;SDS011;12556;55.748;13.194;2023-06-26T02:27:20;10.80;;;9.67;;
11771;SDS011;12556;55.748;13.194;2023-06-26T02:29:47;12.63;;;9.47;;
11771;SDS011;12556;55.748;13.194;2023-06-26T02:32:14;14.73;;;10.70;;
11771;SDS011;12556;55.748;13.194;2023-06-26T02:34:42;12.67;;;11.40;;
11771;SDS011;12556;55.748;13.194;2023-06-26T02:37:09;12.20;;;10.90;;
11771;SDS011;12556;55.748;13.194;2023-06-26T02:39:36;14.13;;;12.20;;
11771;SDS011;12556;55.748;13.194;2023-06-26T02:42:03;14.27;;;12.73;;
11771;SDS011;12556;55.748;13.194;2023-06-26T02:44:30;14.27;;;12.77;;
11771;SDS011;12556;55.748;13.194;2023-06-26T02:46:58;14.20;;;12.50;;
11771;SDS011;12556;55.748;13.194;2023-06-26T02:49:24;17.30;;;13.50;;
11771;SDS011;12556;55.748;13.194;2023-06-26T02:51:53;14.87;;;12.50;;
11771;SDS011;12556;55.748;13.194;2023-06-26T02:54:20;15.10;;;12.57;;
11771;SDS011;12556;55.748;13.194;2023-06-26T02:56:46;15.57;;;13.97;;
11771;SDS011;12556;55.748;13.194;2023-06-26T02:59:13;15.10;;;13.50;;
11771;SDS011;12556;55.748;13.194;2023-06-26T03:01:40;17.93;;;16.03;;
11771;SDS011;12556;55.748;13.194;2023-06-26T03:04:07;16.23;;;14.53;;
11771;SDS011;12556;55.748;13.194;2023-06-26T03:06:35;18.80;;;15.37;;
11771;SDS011;12556;55.748;13.194;2023-06-26T03:09:03;16.63;;;14.90;;
11771;SDS011;12556;55.748;13.194;2023-06-26T03:11:30;17.07;;;15.27;;
11771;SDS011;12556;55.748;13.194;2023-06-26T03:13:57;18.80;;;14.17;;
11771;SDS011;12556;55.748;13.194;2023-06-26T03:16:24;16.73;;;15.10;;
11771;SDS011;12556;55.748;13.194;2023-06-26T03:18:51;17.77;;;14.50;;
11771;SDS011;12556;55.748;13.194;2023-06-26T03:21:18;16.77;;;14.53;;
11771;SDS011;12556;55.748;13.194;2023-06-26T03:23:45;15.00;;;13.30;;
11771;SDS011;12556;55.748;13.194;2023-06-26T03:26:13;14.97;;;12.93;;
11771;SDS011;12556;55.748;13.194;2023-06-26T03:28:40;13.57;;;11.87;;
11771;SDS011;12556;55.748;13.194;2023-06-26T03:31:08;14.40;;;12.50;;
11771;SDS011;12556;55.748;13.194;2023-06-26T03:33:35;16.27;;;12.67;;
11771;SDS011;12556;55.748;13.194;2023-06-26T03:36:03;13.30;;;11.27;;
11771;SDS011;12556;55.748;13.194;2023-06-26T03:38:31;16.70;;;11.60;;
11771;SDS011;12556;55.748;13.194;2023-06-26T03:40:58;12.87;;;11.03;;
11771;SDS011;12556;55.748;13.194;2023-06-26T03:43:26;12.77;;;11.50;;
11771;SDS011;12556;55.748;13.194;2023-06-26T03:45:53;11.43;;;10.27;;
11771;SDS011;12556;55.748;13.194;2023-06-26T03:48:20;11.50;;;10.30;;
11771;SDS011;12556;55.748;13.194;2023-06-26T03:50:47;11.50;;;8.70;;
11771;SDS011;12556;55.748;13.194;2023-06-26T03:53:14;10.00;;;8.97;;
11771;SDS011;12556;55.748;13.194;2023-06-26T03:55:41;9.53;;;8.00;;
11771;SDS011;12556;55.748;13.194;2023-06-26T03:58:07;11.90;;;10.77;;
11771;SDS011;12556;55.748;13.194;2023-06-26T04:00:36;9.63;;;8.63;;
11771;SDS011;12556;55.748;13.194;2023-06-26T04:03:02;8.17;;;7.33;;
11771;SDS011;12556;55.748;13.194;2023-06-26T04:05:29;8.37;;;7.67;;
11771;SDS011;12556;55.748;13.194;2023-06-26T04:07:56;7.83;;;6.90;;
11771;SDS011;12556;55.748;13.194;2023-06-26T04:10:23;7.97;;;7.20;;
11771;SDS011;12556;55.748;13.194;2023-06-26T04:12:50;7.37;;;6.53;;
11771;SDS011;12556;55.748;13.194;2023-06-26T04:15:17;6.80;;;6.10;;
11771;SDS011;12556;55.748;13.194;2023-06-26T04:17:45;7.30;;;6.03;;
11771;SDS011;12556;55.748;13.194;2023-06-26T04:20:12;8.30;;;7.50;;
11771;SDS011;12556;55.748;13.194;2023-06-26T04:22:40;6.93;;;6.33;;
11771;SDS011;12556;55.748;13.194;2023-06-26T04:25:07;6.57;;;5.97;;
11771;SDS011;12556;55.748;13.194;2023-06-26T04:27:36;6.90;;;6.30;;
11771;SDS011;12556;55.748;13.194;2023-06-26T04:30:04;6.93;;;6.33;;
11771;SDS011;12556;55.748;13.194;2023-06-26T04:32:31;8.40;;;6.17;;
11771;SDS011;12556;55.748;13.194;2023-06-26T04:34:59;6.87;;;6.27;;
11771;SDS011;12556;55.748;13.194;2023-06-26T04:37:28;6.90;;;6.20;;
11771;SDS011;12556;55.748;13.194;2023-06-26T04:39:55;7.03;;;5.80;;
11771;SDS011;12556;55.748;13.194;2023-06-26T04:42:22;5.70;;;5.20;;
11771;SDS011;12556;55.748;13.194;2023-06-26T04:44:49;5.67;;;5.10;;
11771;SDS011;12556;55.748;13.194;2023-06-26T04:47:16;5.93;;;4.27;;
11771;SDS011;12556;55.748;13.194;2023-06-26T04:49:43;4.30;;;3.90;;
11771;SDS011;12556;55.748;13.194;2023-06-26T04:52:12;5.20;;;4.10;;
11771;SDS011;12556;55.748;13.194;2023-06-26T04:54:39;4.23;;;3.80;;
11771;SDS011;12556;55.748;13.194;2023-06-26T04:57:06;4.13;;;3.83;;
11771;SDS011;12556;55.748;13.194;2023-06-26T04:59:34;4.50;;;3.83;;
11771;SDS011;12556;55.748;13.194;2023-06-26T05:02:01;4.43;;;3.90;;
11771;SDS011;12556;55.748;13.194;2023-06-26T05:04:30;3.93;;;3.53;;
11771;SDS011;12556;55.748;13.194;2023-06-26T05:06:56;3.90;;;3.50;;
11771;SDS011;12556;55.748;13.194;2023-06-26T05:09:25;3.80;;;3.50;;
11771;SDS011;12556;55.748;13.194;2023-06-26T05:11:52;3.67;;;3.37;;
11771;SDS011;12556;55.748;13.194;2023-06-26T05:14:22;3.93;;;3.33;;
11771;SDS011;12556;55.748;13.194;2023-06-26T05:16:48;3.30;;;3.00;;
11771;SDS011;12556;55.748;13.194;2023-06-26T05:19:16;3.17;;;2.80;;
11771;SDS011;12556;55.748;13.194;2023-06-26T05:21:43;2.83;;;2.63;;
11771;SDS011;12556;55.748;13.194;2023-06-26T05:24:10;3.53;;;2.40;;
11771;SDS011;12556;55.748;13.194;2023-06-26T05:26:43;2.30;;;1.90;;
11771;SDS011;12556;55.748;13.194;2023-06-26T05:29:10;2.53;;;2.28;;
11771;SDS011;12556;55.748;13.194;2023-06-26T05:31:38;3.15;;;2.00;;
11771;SDS011;12556;55.748;13.194;2023-06-26T05:34:07;1.95;;;1.75;;
11771;SDS011;12556;55.748;13.194;2023-06-26T05:36:36;3.88;;;2.05;;
11771;SDS011;12556;55.748;13.194;2023-06-26T05:39:05;2.63;;;1.90;;
11771;SDS011;12556;55.748;13.194;2023-06-26T05:41:32;2.95;;;1.90;;
11771;SDS011;12556;55.748;13.194;2023-06-26T05:44:01;9.27;;;2.28;;
11771;SDS011;12556;55.748;13.194;2023-06-26T05:46:27;2.50;;;1.98;;
11771;SDS011;12556;55.748;13.194;2023-06-26T05:48:54;2.28;;;2.00;;
11771;SDS011;12556;55.748;13.194;2023-06-26T05:51:21;2.30;;;2.10;;
11771;SDS011;12556;55.748;13.194;2023-06-26T05:53:49;2.38;;;2.15;;
11771;SDS011;12556;55.748;13.194;2023-06-26T05:56:16;3.63;;;2.50;;
11771;SDS011;12556;55.748;13.194;2023-06-26T05:58:44;2.50;;;2.30;;
11771;SDS011;12556;55.748;13.194;2023-06-26T06:01:13;5.63;;;2.53;;
11771;SDS011;12556;55.748;13.194;2023-06-26T06:03:40;2.88;;;2.38;;
11771;SDS011;12556;55.748;13.194;2023-06-26T06:06:07;3.00;;;2.60;;
11771;SDS011;12556;55.748;13.194;2023-06-26T06:08:34;3.63;;;2.75;;
11771;SDS011;12556;55.748;13.194;2023-06-26T06:11:00;3.03;;;2.72;;
11771;SDS011;12556;55.748;13.194;2023-06-26T06:13:27;4.80;;;2.70;;
11771;SDS011;12556;55.748;13.194;2023-06-26T06:15:54;4.20;;;3.13;;
11771;SDS011;12556;55.748;13.194;2023-06-26T06:18:22;4.47;;;3.00;;
11771;SDS011;12556;55.748;13.194;2023-06-26T06:20:49;4.00;;;3.17;;
11771;SDS011;12556;55.748;13.194;2023-06-26T06:23:16;3.28;;;3.00;;
11771;SDS011;12556;55.748;13.194;2023-06-26T06:25:43;3.47;;;3.00;;
11771;SDS011;12556;55.748;13.194;2023-06-26T06:28:10;4.43;;;2.90;;
11771;SDS011;12556;55.748;13.194;2023-06-26T06:30:37;3.08;;;2.83;;
11771;SDS011;12556;55.748;13.194;2023-06-26T06:33:04;4.07;;;2.88;;
11771;SDS011;12556;55.748;13.194;2023-06-26T06:35:32;3.60;;;3.08;;
11771;SDS011;12556;55.748;13.194;2023-06-26T06:37:59;3.03;;;2.67;;
11771;SDS011;12556;55.748;13.194;2023-06-26T06:40:25;4.68;;;3.20;;
11771;SDS011;12556;55.748;13.194;2023-06-26T06:42:53;4.32;;;2.88;;
11771;SDS011;12556;55.748;13.194;2023-06-26T06:45:19;7.13;;;3.55;;
11771;SDS011;12556;55.748;13.194;2023-06-26T06:47:46;2.88;;;2.53;;
11771;SDS011;12556;55.748;13.194;2023-06-26T06:50:13;3.45;;;2.63;;
11771;SDS011;12556;55.748;13.194;2023-06-26T06:52:42;4.05;;;2.75;;
11771;SDS011;12556;55.748;13.194;2023-06-26T06:55:09;6.93;;;3.22;;
11771;SDS011;12556;55.748;13.194;2023-06-26T06:57:37;3.40;;;3.00;;
11771;SDS011;12556;55.748;13.194;2023-06-26T07:00:05;4.88;;;2.80;;
11771;SDS011;12556;55.748;13.194;2023-06-26T07:02:35;2.70;;;2.50;;
11771;SDS011;12556;55.748;13.194;2023-06-26T07:05:02;3.40;;;3.05;;
11771;SDS011;12556;55.748;13.194;2023-06-26T07:07:29;2.92;;;2.63;;
11771;SDS011;12556;55.748;13.194;2023-06-26T07:09:59;2.78;;;2.58;;
11771;SDS011;12556;55.748;13.194;2023-06-26T07:12:27;2.55;;;2.35;;
11771;SDS011;12556;55.748;13.194;2023-06-26T07:14:54;2.63;;;2.42;;
11771;SDS011;12556;55.748;13.194;2023-06-26T07:17:21;2.53;;;2.33;;
11771;SDS011;12556;55.748;13.194;2023-06-26T07:19:48;3.20;;;2.90;;
11771;SDS011;12556;55.748;13.194;2023-06-26T07:22:16;3.88;;;2.78;;
11771;SDS011;12556;55.748;13.194;2023-06-26T07:24:45;3.25;;;3.05;;
11771;SDS011;12556;55.748;13.194;2023-06-26T07:27:13;3.13;;;2.92;;
11771;SDS011;12556;55.748;13.194;2023-06-26T07:29:40;2.92;;;2.72;;
11771;SDS011;12556;55.748;13.194;2023-06-26T07:32:07;3.20;;;2.80;;
11771;SDS011;12556;55.748;13.194;2023-06-26T07:34:34;3.30;;;3.00;;
11771;SDS011;12556;55.748;13.194;2023-06-26T07:37:01;4.85;;;3.08;;
11771;SDS011;12556;55.748;13.194;2023-06-26T07:39:28;4.35;;;3.47;;
11771;SDS011;12556;55.748;13.194;2023-06-26T07:41:56;4.68;;;3.35;;
11771;SDS011;12556;55.748;13.194;2023-06-26T07:44:24;4.30;;;3.55;;
11771;SDS011;12556;55.748;13.194;2023-06-26T07:46:51;6.15;;;2.53;;
11771;SDS011;12556;55.748;13.194;2023-06-26T07:49:18;3.72;;;3.25;;
11771;SDS011;12556;55.748;13.194;2023-06-26T07:51:45;4.10;;;2.72;;
11771;SDS011;12556;55.748;13.194;2023-06-26T07:54:12;3.40;;;3.10;;
11771;SDS011;12556;55.748;13.194;2023-06-26T07:56:51;3.90;;;3.28;;
11771;SDS011;12556;55.748;13.194;2023-06-26T07:59:19;6.70;;;3.08;;
11771;SDS011;12556;55.748;13.194;2023-06-26T08:01:48;3.25;;;2.88;;
11771;SDS011;12556;55.748;13.194;2023-06-26T08:04:17;2.80;;;2.60;;
11771;SDS011;12556;55.748;13.194;2023-06-26T08:06:45;3.33;;;3.00;;
11771;SDS011;12556;55.748;13.194;2023-06-26T08:09:11;3.40;;;3.05;;
11771;SDS011;12556;55.748;13.194;2023-06-26T08:11:38;3.53;;;3.22;;
11771;SDS011;12556;55.748;13.194;2023-06-26T08:14:06;3.08;;;2.78;;
11771;SDS011;12556;55.748;13.194;2023-06-26T08:16:32;3.53;;;3.22;;
11771;SDS011;12556;55.748;13.194;2023-06-26T08:19:01;3.22;;;3.03;;
11771;SDS011;12556;55.748;13.194;2023-06-26T08:21:27;2.78;;;2.58;;
11771;SDS011;12556;55.748;13.194;2023-06-26T08:23:55;3.53;;;3.10;;
11771;SDS011;12556;55.748;13.194;2023-06-26T08:26:22;4.30;;;3.00;;
11771;SDS011;12556;55.748;13.194;2023-06-26T08:28:48;4.95;;;2.85;;
11771;SDS011;12556;55.748;13.194;2023-06-26T08:31:15;3.15;;;2.83;;
11771;SDS011;12556;55.748;13.194;2023-06-26T08:33:42;3.85;;;3.25;;
11771;SDS011;12556;55.748;13.194;2023-06-26T08:36:11;3.33;;;3.03;;
11771;SDS011;12556;55.748;13.194;2023-06-26T08:38:38;4.43;;;3.15;;
11771;SDS011;12556;55.748;13.194;2023-06-26T08:41:05;3.35;;;3.10;;
11771;SDS011;12556;55.748;13.194;2023-06-26T08:43:32;3.40;;;3.10;;
11771;SDS011;12556;55.748;13.194;2023-06-26T08:45:59;3.03;;;2.83;;
11771;SDS011;12556;55.748;13.194;2023-06-26T08:48:26;4.70;;;2.85;;
11771;SDS011;12556;55.748;13.194;2023-06-26T08:50:57;4.45;;;3.08;;
11771;SDS011;12556;55.748;13.194;2023-06-26T08:53:39;2.80;;;2.50;;
11771;SDS011;12556;55.748;13.194;2023-06-26T08:56:14;3.22;;;2.92;;
11771;SDS011;12556;55.748;13.194;2023-06-26T08:58:46;4.25;;;2.90;;
11771;SDS011;12556;55.748;13.194;2023-06-26T09:01:13;2.78;;;2.60;;
11771;SDS011;12556;55.748;13.194;2023-06-26T09:03:40;4.00;;;2.80;;
11771;SDS011;12556;55.748;13.194;2023-06-26T09:06:07;2.83;;;2.63;;
11771;SDS011;12556;55.748;13.194;2023-06-26T09:08:35;3.55;;;3.25;;
11771;SDS011;12556;55.748;13.194;2023-06-26T09:11:02;3.50;;;2.78;;
11771;SDS011;12556;55.748;13.194;2023-06-26T09:13:29;3.63;;;3.33;;
11771;SDS011;12556;55.748;13.194;2023-06-26T09:15:57;5.70;;;3.28;;
11771;SDS011;12556;55.748;13.194;2023-06-26T09:18:24;4.35;;;3.20;;
11771;SDS011;12556;55.748;13.194;2023-06-26T09:20:51;3.33;;;3.03;;
11771;SDS011;12556;55.748;13.194;2023-06-26T09:23:18;3.58;;;3.30;;
11771;SDS011;12556;55.748;13.194;2023-06-26T09:25:47;3.70;;;3.33;;
11771;SDS011;12556;55.748;13.194;2023-06-26T09:28:14;3.90;;;3.60;;
11771;SDS011;12556;55.748;13.194;2023-06-26T09:30:41;12.02;;;4.10;;
11771;SDS011;12556;55.748;13.194;2023-06-26T09:33:13;5.57;;;3.30;;
11771;SDS011;12556;55.748;13.194;2023-06-26T09:35:41;4.43;;;3.20;;
11771;SDS011;12556;55.748;13.194;2023-06-26T09:38:09;3.92;;;3.50;;
11771;SDS011;12556;55.748;13.194;2023-06-26T09:40:36;3.60;;;3.03;;
11771;SDS011;12556;55.748;13.194;2023-06-26T09:43:05;3.50;;;3.20;;
11771;SDS011;12556;55.748;13.194;2023-06-26T09:45:32;4.70;;;3.50;;
11771;SDS011;12556;55.748;13.194;2023-06-26T09:48:01;4.65;;;3.38;;
11771;SDS011;12556;55.748;13.194;2023-06-26T09:50:29;3.78;;;3.45;;
11771;SDS011;12556;55.748;13.194;2023-06-26T09:52:59;3.65;;;3.35;;
11771;SDS011;12556;55.748;13.194;2023-06-26T09:55:34;3.80;;;3.50;;
11771;SDS011;12556;55.748;13.194;2023-06-26T09:58:02;4.65;;;3.78;;
11771;SDS011;12556;55.748;13.194;2023-06-26T10:00:32;3.88;;;3.50;;
11771;SDS011;12556;55.748;13.194;2023-06-26T10:02:59;5.13;;;3.58;;
11771;SDS011;12556;55.748;13.194;2023-06-26T10:05:26;4.40;;;3.65;;
11771;SDS011;12556;55.748;13.194;2023-06-26T10:07:53;3.75;;;3.45;;
11771;SDS011;12556;55.748;13.194;2023-06-26T10:10:20;3.60;;;3.30;;
11771;SDS011;12556;55.748;13.194;2023-06-26T10:12:49;3.88;;;3.58;;
11771;SDS011;12556;55.748;13.194;2023-06-26T10:15:22;4.75;;;3.58;;
11771;SDS011;12556;55.748;13.194;2023-06-26T10:17:51;3.55;;;3.25;;
11771;SDS011;12556;55.748;13.194;2023-06-26T10:20:22;4.72;;;3.50;;
11771;SDS011;12556;55.748;13.194;2023-06-26T10:22:51;4.32;;;3.55;;
11771;SDS011;12556;55.748;13.194;2023-06-26T10:25:21;3.50;;;3.28;;
11771;SDS011;12556;55.748;13.194;2023-06-26T10:27:52;4.43;;;3.40;;
11771;SDS011;12556;55.748;13.194;2023-06-26T10:30:24;4.40;;;3.38;;
11771;SDS011;12556;55.748;13.194;2023-06-26T10:32:54;3.90;;;3.45;;
11771;SDS011;12556;55.748;13.194;2023-06-26T10:35:21;4.60;;;3.30;;
11771;SDS011;12556;55.748;13.194;2023-06-26T10:37:50;3.30;;;3.10;;
11771;SDS011;12556;55.748;13.194;2023-06-26T10:40:21;4.00;;;3.47;;
11771;SDS011;12556;55.748;13.194;2023-06-26T10:42:51;5.00;;;3.40;;
11771;SDS011;12556;55.748;13.194;2023-06-26T10:45:33;3.85;;;3.55;;
11771;SDS011;12556;55.748;13.194;2023-06-26T10:48:00;4.20;;;3.90;;
11771;SDS011;12556;55.748;13.194;2023-06-26T10:50:29;7.28;;;4.10;;
11771;SDS011;12556;55.748;13.194;2023-06-26T10:53:10;4.72;;;4.32;;
11771;SDS011;12556;55.748;13.194;2023-06-26T10:55:41;4.13;;;3.58;;
11771;SDS011;12556;55.748;13.194;2023-06-26T11:00:54;5.82;;;4.18;;
11771;SDS011;12556;55.748;13.194;2023-06-26T11:03:44;4.55;;;4.15;;
11771;SDS011;12556;55.748;13.194;2023-06-26T11:06:12;4.07;;;3.78;;
11771;SDS011;12556;55.748;13.194;2023-06-26T11:08:44;10.35;;;4.57;;
11771;SDS011;12556;55.748;13.194;2023-06-26T11:11:12;4.70;;;4.30;;
11771;SDS011;12556;55.748;13.194;2023-06-26T11:13:39;5.15;;;4.68;;
11771;SDS011;12556;55.748;13.194;2023-06-26T11:16:08;4.72;;;3.80;;
11771;SDS011;12556;55.748;13.194;2023-06-26T11:18:35;5.63;;;4.03;;
11771;SDS011;12556;55.748;13.194;2023-06-26T11:21:06;4.93;;;4.43;;
11771;SDS011;12556;55.748;13.194;2023-06-26T11:23:33;4.78;;;3.85;;
11771;SDS011;12556;55.748;13.194;2023-06-26T11:26:15;10.68;;;4.70;;
11771;SDS011;12556;55.748;13.194;2023-06-26T11:28:46;7.68;;;4.57;;
11771;SDS011;12556;55.748;13.194;2023-06-26T11:31:27;5.93;;;4.93;;
11771;SDS011;12556;55.748;13.194;2023-06-26T11:33:55;7.72;;;4.60;;
11771;SDS011;12556;55.748;13.194;2023-06-26T11:36:23;5.13;;;4.63;;
11771;SDS011;12556;55.748;13.194;2023-06-26T11:38:54;5.13;;;4.60;;
11771;SDS011;12556;55.748;13.194;2023-06-26T11:41:21;4.93;;;4.53;;
11771;SDS011;12556;55.748;13.194;2023-06-26T11:43:49;4.50;;;4.10;;
11771;SDS011;12556;55.748;13.194;2023-06-26T11:46:18;4.82;;;3.97;;
11771;SDS011;12556;55.748;13.194;2023-06-26T11:48:48;7.32;;;4.43;;
11771;SDS011;12556;55.748;13.194;2023-06-26T11:51:15;5.68;;;4.93;;
11771;SDS011;12556;55.748;13.194;2023-06-26T11:53:43;4.68;;;4.28;;
11771;SDS011;12556;55.748;13.194;2023-06-26T11:56:11;4.75;;;4.28;;
11771;SDS011;12556;55.748;13.194;2023-06-26T12:01:25;4.65;;;4.25;;
11771;SDS011;12556;55.748;13.194;2023-06-26T12:03:57;4.85;;;4.45;;
11771;SDS011;12556;55.748;13.194;2023-06-26T12:06:26;4.47;;;3.72;;
11771;SDS011;12556;55.748;13.194;2023-06-26T12:08:54;5.00;;;4.35;;
11771;SDS011;12556;55.748;13.194;2023-06-26T12:11:21;6.65;;;5.15;;
11771;SDS011;12556;55.748;13.194;2023-06-26T12:13:50;6.20;;;4.50;;
11771;SDS011;12556;55.748;13.194;2023-06-26T12:16:18;5.68;;;4.40;;
11771;SDS011;12556;55.748;13.194;2023-06-26T12:18:45;4.78;;;4.38;;
11771;SDS011;12556;55.748;13.194;2023-06-26T12:24:08;5.45;;;4.25;;
11771;SDS011;12556;55.748;13.194;2023-06-26T12:26:40;6.55;;;4.55;;
11771;SDS011;12556;55.748;13.194;2023-06-26T12:29:09;6.30;;;4.63;;
11771;SDS011;12556;55.748;13.194;2023-06-26T12:31:39;7.85;;;4.45;;
11771;SDS011;12556;55.748;13.194;2023-06-26T12:34:08;6.00;;;5.15;;
11771;SDS011;12556;55.748;13.194;2023-06-26T12:36:39;11.07;;;4.68;;
11771;SDS011;12556;55.748;13.194;2023-06-26T12:39:10;8.45;;;4.68;;
11771;SDS011;12556;55.748;13.194;2023-06-26T12:41:47;5.13;;;4.63;;
11771;SDS011;12556;55.748;13.194;2023-06-26T12:44:18;4.55;;;4.18;;
11771;SDS011;12556;55.748;13.194;2023-06-26T12:46:46;6.28;;;5.25;;
11771;SDS011;12556;55.748;13.194;2023-06-26T12:49:14;5.78;;;5.18;;
11771;SDS011;12556;55.748;13.194;2023-06-26T12:51:41;4.95;;;4.45;;
11771;SDS011;12556;55.748;13.194;2023-06-26T12:54:10;6.18;;;4.82;;
11771;SDS011;12556;55.748;13.194;2023-06-26T12:56:37;10.27;;;4.75;;
11771;SDS011;12556;55.748;13.194;2023-06-26T12:59:04;5.28;;;4.40;;
11771;SDS011;12556;55.748;13.194;2023-06-26T13:01:31;6.13;;;4.72;;
11771;SDS011;12556;55.748;13.194;2023-06-26T13:03:57;7.32;;;4.80;;
11771;SDS011;12556;55.748;13.194;2023-06-26T13:06:24;6.25;;;4.70;;
11771;SDS011;12556;55.748;13.194;2023-06-26T13:08:51;5.03;;;4.35;;
11771;SDS011;12556;55.748;13.194;2023-06-26T13:11:20;5.63;;;4.57;;
11771;SDS011;12556;55.748;13.194;2023-06-26T13:13:47;7.30;;;4.95;;
11771;SDS011;12556;55.748;13.194;2023-06-26T13:16:14;6.45;;;4.88;;
11771;SDS011;12556;55.748;13.194;2023-06-26T13:18:43;5.65;;;4.40;;
11771;SDS011;12556;55.748;13.194;2023-06-26T13:21:10;6.90;;;4.70;;
11771;SDS011;12556;55.748;13.194;2023-06-26T13:23:37;5.72;;;4.60;;
11771;SDS011;12556;55.748;13.194;2023-06-26T13:26:04;5.03;;;4.63;;
11771;SDS011;12556;55.748;13.194;2023-06-26T13:28:33;5.22;;;4.82;;
11771;SDS011;12556;55.748;13.194;2023-06-26T13:31:00;6.43;;;4.60;;
11771;SDS011;12556;55.748;13.194;2023-06-26T13:33:27;9.00;;;5.10;;
11771;SDS011;12556;55.748;13.194;2023-06-26T13:35:54;6.53;;;5.10;;
11771;SDS011;12556;55.748;13.194;2023-06-26T13:38:21;6.50;;;4.85;;
11771;SDS011;12556;55.748;13.194;2023-06-26T13:40:50;5.60;;;5.00;;
11771;SDS011;12556;55.748;13.194;2023-06-26T13:43:18;5.15;;;4.75;;
11771;SDS011;12556;55.748;13.194;2023-06-26T13:45:48;5.05;;;4.65;;
11771;SDS011;12556;55.748;13.194;2023-06-26T13:48:15;6.22;;;4.68;;
11771;SDS011;12556;55.748;13.194;2023-06-26T13:50:42;7.32;;;4.22;;
11771;SDS011;12556;55.748;13.194;2023-06-26T13:53:09;4.68;;;4.20;;
11771;SDS011;12556;55.748;13.194;2023-06-26T13:55:36;6.35;;;4.47;;
11771;SDS011;12556;55.748;13.194;2023-06-26T13:58:03;5.40;;;4.88;;
11771;SDS011;12556;55.748;13.194;2023-06-26T14:00:30;6.10;;;4.57;;
11771;SDS011;12556;55.748;13.194;2023-06-26T14:02:59;5.20;;;4.70;;
11771;SDS011;12556;55.748;13.194;2023-06-26T14:05:28;5.63;;;4.72;;
11771;SDS011;12556;55.748;13.194;2023-06-26T14:07:55;4.88;;;4.20;;
11771;SDS011;12556;55.748;13.194;2023-06-26T14:10:22;4.80;;;4.32;;
11771;SDS011;12556;55.748;13.194;2023-06-26T14:12:49;4.88;;;4.10;;
11771;SDS011;12556;55.748;13.194;2023-06-26T14:15:17;4.45;;;4.05;;
11771;SDS011;12556;55.748;13.194;2023-06-26T14:17:43;4.57;;;4.15;;
11771;SDS011;12556;55.748;13.194;2023-06-26T14:20:14;4.18;;;2.97;;
11771;SDS011;12556;55.748;13.194;2023-06-26T14:22:42;5.72;;;3.42;;
11771;SDS011;12556;55.748;13.194;2023-06-26T14:25:10;8.95;;;4.07;;
11771;SDS011;12556;55.748;13.194;2023-06-26T14:27:37;15.48;;;4.88;;
11771;SDS011;12556;55.748;13.194;2023-06-26T14:30:05;14.65;;;5.38;;
11771;SDS011;12556;55.748;13.194;2023-06-26T14:32:33;12.85;;;5.40;;
11771;SDS011;12556;55.748;13.194;2023-06-26T14:35:01;12.25;;;5.53;;
11771;SDS011;12556;55.748;13.194;2023-06-26T14:37:30;10.90;;;5.25;;
11771;SDS011;12556;55.748;13.194;2023-06-26T14:39:57;10.25;;;4.85;;
11771;SDS011;12556;55.748;13.194;2023-06-26T14:42:24;8.52;;;4.18;;
11771;SDS011;12556;55.748;13.194;2023-06-26T14:44:51;8.50;;;4.47;;